createdAt,value
2024-05-09T00:00:40.367Z,93597.78
2024-05-09T00:03:10.040Z,93595.56
2024-05-09T00:05:40.031Z,93593.16
2024-05-09T00:08:07.283Z,93592.41
2024-05-09T00:10:37.466Z,93589.69
2024-05-09T00:13:10.760Z,93593.75
2024-05-09T00:15:38.215Z,93591.84
2024-05-09T00:18:06.818Z,93589.38
2024-05-09T00:20:38.912Z,93587.28
2024-05-09T00:23:12.209Z,93584.75
2024-05-09T00:25:40.774Z,93587.69
2024-05-09T00:28:07.458Z,93579.00
2024-05-09T00:30:36.337Z,93587.22
2024-05-09T00:33:06.019Z,93583.72
2024-05-09T00:35:33.970Z,93574.44
2024-05-09T00:38:00.994Z,93578.22
2024-05-09T00:40:38.772Z,93575.66
2024-05-09T00:43:08.027Z,93576.16
2024-05-09T00:45:35.153Z,93576.91
2024-05-09T00:48:07.467Z,93581.44
2024-05-09T00:50:38.722Z,93573.50
2024-05-09T00:53:07.618Z,93577.25
2024-05-09T00:55:36.185Z,93574.16
2024-05-09T00:58:03.715Z,93578.13
2024-05-09T01:00:37.929Z,93567.94
2024-05-09T01:03:07.775Z,93564.16
2024-05-09T01:05:35.389Z,93560.38
2024-05-09T01:08:03.045Z,93563.81
2024-05-09T01:10:34.485Z,93565.88
2024-05-09T01:13:07.309Z,93559.63
2024-05-09T01:15:35.174Z,93557.06
2024-05-09T01:18:09.378Z,93559.47
2024-05-09T01:20:41.926Z,93541.97
2024-05-09T01:23:11.969Z,93557.38
2024-05-09T01:25:39.055Z,93546.16
2024-05-09T01:28:06.168Z,93553.72
2024-05-09T01:30:35.894Z,93549.56
2024-05-09T01:33:06.602Z,93549.94
2024-05-09T01:35:35.184Z,93544.47
2024-05-09T01:38:02.116Z,93545.78
2024-05-09T01:40:36.703Z,93543.06
2024-05-09T01:43:06.607Z,93547.00
2024-05-09T01:45:33.410Z,93543.41
2024-05-09T01:48:00.906Z,93540.50
2024-05-09T01:50:37.411Z,93533.22
2024-05-09T01:53:08.969Z,93535.69
2024-05-09T01:55:35.661Z,93540.59
2024-05-09T01:58:02.333Z,93535.97
2024-05-09T02:00:37.383Z,93536.63
2024-05-09T02:03:10.207Z,93535.13
2024-05-09T02:05:37.961Z,93535.88
2024-05-09T02:08:05.653Z,93526.31
2024-05-09T02:10:33.446Z,93529.84
2024-05-09T02:13:00.739Z,93527.25
2024-05-09T02:15:27.725Z,93529.84
2024-05-09T02:17:54.699Z,93528.03
2024-05-09T02:22:51.200Z,93530.50
2024-05-09T02:25:17.827Z,93527.44
2024-05-09T02:27:44.498Z,93535.59
2024-05-09T02:30:18.771Z,93535.38
2024-05-09T02:32:53.019Z,93533.88
2024-05-09T02:35:19.714Z,93529.72
2024-05-09T02:37:46.410Z,93532.44
2024-05-09T02:40:14.989Z,93527.44
2024-05-09T02:42:45.015Z,93524.25
2024-05-09T02:45:11.611Z,93521.31
2024-05-09T02:47:38.388Z,93521.88
2024-05-09T02:50:07.808Z,93516.88
2024-05-09T02:52:34.679Z,93519.03
2024-05-09T02:55:01.301Z,93519.22
2024-05-09T02:57:27.956Z,93528.34
2024-05-09T02:59:54.702Z,93522.69
2024-05-09T03:02:21.510Z,93514.00
2024-05-09T03:04:48.298Z,93519.94
2024-05-09T03:07:14.989Z,93514.16
2024-05-09T03:09:46.495Z,93524.47
2024-05-09T03:12:13.328Z,93512.50
2024-05-09T03:14:40.070Z,93520.97
2024-05-09T03:17:06.947Z,93526.34
2024-05-09T03:19:35.648Z,93522.00
2024-05-09T03:22:02.400Z,93527.47
2024-05-09T03:24:29.039Z,93526.41
2024-05-09T03:26:55.680Z,93523.97
2024-05-09T03:29:22.420Z,93524.84
2024-05-09T03:31:49.142Z,93523.63
2024-05-09T03:34:16.011Z,93531.66
2024-05-09T03:36:45.720Z,93522.69
2024-05-09T03:39:12.416Z,93515.97
2024-05-09T03:41:39.330Z,93518.53
2024-05-09T03:44:06.152Z,93532.03
2024-05-09T03:46:37.749Z,93521.81
2024-05-09T03:49:04.563Z,93519.81
2024-05-09T03:51:31.299Z,93526.63
2024-05-09T03:53:58.482Z,93519.88
2024-05-09T03:56:25.938Z,93519.31
2024-05-09T03:58:52.771Z,93519.25
2024-05-09T04:01:19.534Z,93512.81
2024-05-09T04:03:46.384Z,93523.78
2024-05-09T04:06:20.191Z,93522.94
2024-05-09T04:08:46.940Z,93524.91
2024-05-09T04:11:13.656Z,93532.19
2024-05-09T04:13:40.391Z,93530.19
2024-05-09T04:16:09.662Z,93528.09
2024-05-09T04:18:36.769Z,93534.44
2024-05-09T04:21:04.476Z,93529.72
2024-05-09T04:23:31.313Z,93528.78
2024-05-09T04:25:58.254Z,93531.59
2024-05-09T04:28:26.180Z,93524.91
2024-05-09T04:30:52.888Z,93531.22
2024-05-09T04:33:20.027Z,93526.91
2024-05-09T04:35:47.258Z,93534.25
2024-05-09T04:38:14.900Z,93536.91
2024-05-09T04:40:42.211Z,93531.34
2024-05-09T04:43:15.346Z,93531.72
2024-05-09T04:45:42.833Z,93533.78
2024-05-09T04:48:09.695Z,93524.63
2024-05-09T04:50:39.017Z,93526.03
2024-05-09T04:53:09.027Z,93534.06
2024-05-09T04:55:37.270Z,93531.13
2024-05-09T04:58:04.986Z,93535.28
2024-05-09T05:00:37.094Z,93529.13
2024-05-09T05:03:13.202Z,93533.88
2024-05-09T05:05:42.593Z,93535.19
2024-05-09T05:08:17.421Z,93536.28
2024-05-09T05:10:45.806Z,93530.06
2024-05-09T05:13:18.431Z,93529.31
2024-05-09T05:15:46.767Z,93531.88
2024-05-09T05:18:15.124Z,93543.31
2024-05-09T05:20:42.537Z,93543.88
2024-05-09T05:23:14.042Z,93537.63
2024-05-09T05:25:43.922Z,93541.63
2024-05-09T05:28:11.131Z,93540.66
2024-05-09T05:30:38.665Z,93542.91
2024-05-09T05:33:06.510Z,93544.44
2024-05-09T05:35:34.698Z,93547.56
2024-05-09T05:38:02.682Z,93555.28
2024-05-09T05:40:36.395Z,93557.53
2024-05-09T05:43:16.387Z,93560.09
2024-05-09T05:45:43.335Z,93553.25
2024-05-09T05:48:10.558Z,93556.09
2024-05-09T05:50:38.478Z,93561.75
2024-05-09T05:53:06.802Z,93552.31
2024-05-09T05:55:33.744Z,93559.94
2024-05-09T05:58:02.078Z,93569.69
2024-05-09T06:00:34.905Z,93557.97
2024-05-09T06:03:05.822Z,93561.94
2024-05-09T06:05:33.017Z,93559.63
2024-05-09T06:08:00.009Z,93562.78
2024-05-09T06:10:36.929Z,93574.53
2024-05-09T06:13:06.501Z,93567.81
2024-05-09T06:15:33.179Z,93564.91
2024-05-09T06:18:00.090Z,93567.00
2024-05-09T06:20:34.806Z,93561.41
2024-05-09T06:23:05.246Z,93559.31
2024-05-09T06:25:32.422Z,93563.09
2024-05-09T06:28:00.396Z,93557.41
2024-05-09T06:30:36.591Z,93564.81
2024-05-09T06:33:07.315Z,93564.34
2024-05-09T06:35:34.451Z,93559.00
2024-05-09T06:38:01.580Z,93567.44
2024-05-09T06:40:36.439Z,93568.13
2024-05-09T06:43:10.601Z,93569.69
2024-05-09T06:45:37.358Z,93566.25
2024-05-09T06:48:04.483Z,93566.88
2024-05-09T06:50:36.796Z,93570.44
2024-05-09T06:53:05.059Z,93565.66
2024-05-09T06:55:31.813Z,93558.78
2024-05-09T06:57:58.496Z,93563.72
2024-05-09T07:00:34.384Z,93563.78
2024-05-09T07:03:13.513Z,93549.41
2024-05-09T07:05:42.642Z,93553.53
2024-05-09T07:08:09.914Z,93556.13
2024-05-09T07:10:37.193Z,93555.13
2024-05-09T07:13:14.889Z,93554.91
2024-05-09T07:15:43.219Z,93546.63
2024-05-09T07:18:17.293Z,93557.06
2024-05-09T07:20:45.976Z,93549.81
2024-05-09T07:23:13.199Z,93555.66
2024-05-09T07:25:41.158Z,93544.63
2024-05-09T07:28:15.455Z,93539.50
2024-05-09T07:30:42.944Z,93547.41
2024-05-09T07:33:15.430Z,93548.44
2024-05-09T07:35:42.306Z,93544.72
2024-05-09T07:38:09.071Z,93547.38
2024-05-09T07:40:37.116Z,93541.59
2024-05-09T07:43:08.278Z,93542.09
2024-05-09T07:52:32.652Z,93543.66
2024-05-09T07:55:54.004Z,93539.72
2024-05-09T07:58:20.894Z,93546.97
2024-05-09T08:00:47.570Z,93549.16
2024-05-09T08:03:14.403Z,93550.16
2024-05-09T08:05:41.474Z,93551.75
2024-05-09T08:08:08.275Z,93535.28
2024-05-09T08:10:35.276Z,93532.38
2024-05-09T08:13:02.152Z,93531.66
2024-05-09T08:15:29.071Z,93529.97
2024-05-09T08:17:56.261Z,93525.75
2024-05-09T08:20:30.767Z,93530.69
2024-05-09T08:23:00.510Z,93527.94
2024-05-09T08:25:27.923Z,93530.13
2024-05-09T08:27:54.625Z,93529.63
2024-05-09T08:30:29.774Z,93531.88
2024-05-09T08:33:03.680Z,93517.22
2024-05-09T08:35:30.385Z,93518.25
2024-05-09T08:37:58.154Z,93530.50
2024-05-09T08:40:32.916Z,93532.25
2024-05-09T08:43:04.368Z,93532.25
2024-05-09T08:45:33.365Z,93525.25
2024-05-09T08:48:04.049Z,93523.06
2024-05-09T08:50:37.877Z,93523.09
2024-05-09T08:53:06.263Z,93523.34
2024-05-09T08:55:33.073Z,93524.84
2024-05-09T08:58:02.684Z,93526.59
2024-05-09T09:00:36.818Z,93531.09
2024-05-09T09:03:09.105Z,93532.84
2024-05-09T09:05:38.808Z,93528.09
2024-05-09T09:08:08.965Z,93527.34
2024-05-09T09:10:39.565Z,93530.88
2024-05-09T09:13:09.446Z,93525.88
2024-05-09T09:15:49.843Z,93521.84
2024-05-09T09:18:17.650Z,93521.34
2024-05-09T09:20:45.169Z,93527.09
2024-05-09T09:23:11.883Z,93522.31
2024-05-09T09:25:42.008Z,93530.34
2024-05-09T09:28:09.560Z,93532.09
2024-05-09T09:30:40.451Z,93521.78
2024-05-09T09:33:09.367Z,93524.25
2024-05-09T09:35:36.396Z,93526.75
2024-05-09T09:38:04.475Z,93519.22
2024-05-09T09:40:39.093Z,93520.00
2024-05-09T09:43:18.628Z,93528.56
2024-05-09T09:45:46.887Z,93528.09
2024-05-09T09:48:15.500Z,93533.88
2024-05-09T09:50:42.491Z,93531.06
2024-05-09T09:53:09.991Z,93528.56
2024-05-09T09:55:37.546Z,93524.78
2024-05-09T09:58:08.787Z,93511.72
2024-05-09T10:00:37.914Z,93514.94
2024-05-09T10:03:05.437Z,93520.16
2024-05-09T10:05:33.746Z,93516.31
2024-05-09T10:08:06.635Z,93521.38
2024-05-09T10:10:35.293Z,93525.09
2024-05-09T10:13:07.255Z,93517.81
2024-05-09T10:15:45.372Z,93516.06
2024-05-09T10:18:12.381Z,93507.22
2024-05-09T10:20:40.773Z,93501.47
2024-05-09T10:23:23.674Z,93501.16
2024-05-09T10:26:01.119Z,93497.09
2024-05-09T10:28:29.109Z,93495.38
2024-05-09T10:31:08.855Z,93500.00
2024-05-09T10:33:49.071Z,93508.81
2024-05-09T10:36:25.649Z,93498.09
2024-05-09T10:38:53.690Z,93500.22
2024-05-09T10:41:21.180Z,93499.38
2024-05-09T10:43:48.908Z,93512.34
2024-05-09T10:46:16.497Z,93502.59
2024-05-09T10:48:44.306Z,93506.75
2024-05-09T10:51:11.787Z,93497.66
2024-05-09T10:53:42.262Z,93495.31
2024-05-09T10:56:09.727Z,93509.75
2024-05-09T10:58:36.637Z,93493.91
2024-05-09T11:01:06.751Z,93492.19
2024-05-09T11:03:35.154Z,93489.16
2024-05-09T11:06:02.455Z,93487.88
2024-05-09T11:08:31.796Z,93489.09
2024-05-09T11:10:59.696Z,93478.03
2024-05-09T11:13:29.475Z,93480.03
2024-05-09T11:15:56.382Z,93479.16
2024-05-09T11:18:25.602Z,93482.47
2024-05-09T11:20:54.571Z,93481.03
2024-05-09T11:23:26.227Z,93490.22
2024-05-09T11:25:57.826Z,93493.19
2024-05-09T11:28:26.792Z,93478.50
2024-05-09T11:31:06.407Z,93476.00
2024-05-09T11:33:36.859Z,93477.97
2024-05-09T11:36:04.328Z,93472.91
2024-05-09T11:38:31.356Z,93487.44
2024-05-09T11:40:58.058Z,93476.00
2024-05-09T11:43:24.754Z,93481.19
2024-05-09T11:45:51.830Z,93478.78
2024-05-09T11:48:18.666Z,93477.13
2024-05-09T11:50:45.411Z,93469.56
2024-05-09T11:53:12.384Z,93470.81
2024-05-09T11:55:39.000Z,93470.97
2024-05-09T11:58:06.770Z,93472.47
2024-05-09T12:00:37.157Z,93475.00
2024-05-09T12:03:05.834Z,93469.09
2024-05-09T12:05:33.764Z,93457.41
2024-05-09T12:08:01.217Z,93455.38
2024-05-09T12:10:33.345Z,93467.59
2024-05-09T12:13:02.852Z,93467.81
2024-05-09T12:15:30.227Z,93461.38
2024-05-09T12:17:59.113Z,93461.97
2024-05-09T12:20:35.123Z,93451.34
2024-05-09T12:23:05.203Z,93456.59
2024-05-09T12:25:31.931Z,93450.34
2024-05-09T12:27:58.799Z,93458.13
2024-05-09T12:30:34.980Z,93452.25
2024-05-09T12:33:05.953Z,93456.97
2024-05-09T12:35:33.002Z,93454.44
2024-05-09T12:37:59.787Z,93445.09
2024-05-09T12:40:34.596Z,93448.34
2024-05-09T12:43:05.082Z,93446.03
2024-05-09T12:45:32.531Z,93459.66
2024-05-09T12:47:59.610Z,93452.81
2024-05-09T12:50:32.360Z,93451.44
2024-05-09T12:53:01.600Z,93450.69
2024-05-09T12:55:31.770Z,93448.34
2024-05-09T12:58:04.784Z,93442.66
2024-05-09T13:00:34.122Z,93442.94
2024-05-09T13:03:01.644Z,93448.38
2024-05-09T13:05:28.957Z,93448.09
2024-05-09T13:07:56.930Z,93461.91
2024-05-09T13:10:31.124Z,93439.44
2024-05-09T13:13:01.017Z,93447.28
2024-05-09T13:15:29.841Z,93437.91
2024-05-09T13:18:00.291Z,93442.13
2024-05-09T13:20:33.227Z,93441.00
2024-05-09T13:23:03.958Z,93438.00
2024-05-09T13:25:30.802Z,93439.88
2024-05-09T13:27:57.823Z,93441.84
2024-05-09T13:30:30.183Z,93430.56
2024-05-09T13:33:06.069Z,93422.25
2024-05-09T13:35:35.187Z,93425.94
2024-05-09T13:38:02.955Z,93421.28
2024-05-09T13:40:34.190Z,93417.94
2024-05-09T13:43:03.682Z,93417.75
2024-05-09T13:45:30.657Z,93428.38
2024-05-09T13:47:57.705Z,93423.69
2024-05-09T13:50:33.114Z,93430.63
2024-05-09T13:53:02.846Z,93410.16
2024-05-09T13:55:29.593Z,93410.00
2024-05-09T13:57:56.695Z,93423.03
2024-05-09T14:00:37.833Z,93418.41
2024-05-09T14:03:10.548Z,93417.63
2024-05-09T14:05:37.556Z,93412.38
2024-05-09T14:08:04.736Z,93399.06
2024-05-09T14:10:32.465Z,93397.56
2024-05-09T14:13:01.156Z,93400.66
2024-05-09T14:15:28.199Z,93404.81
2024-05-09T14:17:55.676Z,93400.44
2024-05-09T14:20:30.687Z,93397.06
2024-05-09T14:23:00.806Z,93396.97
2024-05-09T14:25:30.026Z,93398.50
2024-05-09T14:28:00.126Z,93398.81
2024-05-09T14:30:34.744Z,93403.34
2024-05-09T14:33:06.269Z,93400.88
2024-05-09T14:35:34.080Z,93410.44
2024-05-09T14:38:00.826Z,93398.91
2024-05-09T14:40:37.179Z,93394.88
2024-05-09T14:43:09.983Z,93413.28
2024-05-09T14:45:36.826Z,93401.28
2024-05-09T14:48:04.209Z,93406.34
2024-05-09T14:50:36.594Z,93407.34
2024-05-09T14:53:07.363Z,93396.97
2024-05-09T14:55:37.382Z,93397.66
2024-05-09T14:58:08.997Z,93387.97
2024-05-09T15:00:41.300Z,93397.66
2024-05-09T15:03:11.293Z,93385.53
2024-05-09T15:05:38.110Z,93397.69
2024-05-09T15:08:08.691Z,93386.53
2024-05-09T15:10:36.962Z,93385.69
2024-05-09T15:13:06.033Z,93381.94
2024-05-09T15:15:34.047Z,93386.06
2024-05-09T15:18:00.931Z,93378.97
2024-05-09T15:20:34.382Z,93379.94
2024-05-09T15:23:03.804Z,93388.84
2024-05-09T15:25:30.997Z,93391.09
2024-05-09T15:27:57.934Z,93384.16
2024-05-09T15:30:30.735Z,93380.25
2024-05-09T15:33:01.157Z,93387.22
2024-05-09T15:35:28.249Z,93382.16
2024-05-09T15:37:55.348Z,93390.38
2024-05-09T15:40:31.304Z,93386.47
2024-05-09T15:43:05.772Z,93390.50
2024-05-09T15:45:32.934Z,93385.41
2024-05-09T15:48:00.220Z,93384.50
2024-05-09T15:50:35.960Z,93394.22
2024-05-09T15:53:07.708Z,93387.06
2024-05-09T15:55:35.324Z,93383.78
2024-05-09T15:58:03.685Z,93383.91
2024-05-09T16:00:37.850Z,93382.78
2024-05-09T16:03:08.914Z,93389.97
2024-05-09T16:05:36.434Z,93381.88
2024-05-09T16:08:03.611Z,93384.03
2024-05-09T16:10:33.070Z,93381.59
2024-05-09T16:13:02.296Z,93387.41
2024-05-09T16:15:29.621Z,93387.59
2024-05-09T16:17:56.592Z,93387.44
2024-05-09T16:22:55.798Z,93381.13
2024-05-09T16:25:22.433Z,93382.25
2024-05-09T16:27:51.203Z,93389.06
2024-05-09T16:30:24.842Z,93386.03
2024-05-09T16:32:58.523Z,93381.94
2024-05-09T16:35:25.185Z,93383.97
2024-05-09T16:37:51.871Z,93385.75
2024-05-09T16:40:25.691Z,93381.91
2024-05-09T16:43:03.644Z,93379.38
2024-05-09T16:45:30.608Z,93387.81
2024-05-09T16:48:00.412Z,93384.47
2024-05-09T16:50:32.479Z,93372.44
2024-05-09T16:53:01.835Z,93387.75
2024-05-09T16:55:28.851Z,93385.03
2024-05-09T16:57:56.968Z,93376.63
2024-05-09T17:00:35.187Z,93375.81
2024-05-09T17:03:08.864Z,93377.63
2024-05-09T17:05:36.414Z,93374.16
2024-05-09T17:08:03.773Z,93369.13
2024-05-09T17:10:33.717Z,93370.41
2024-05-09T17:13:03.839Z,93367.19
2024-05-09T17:15:32.489Z,93375.47
2024-05-09T17:17:59.474Z,93374.66
2024-05-09T17:20:32.624Z,93367.69
2024-05-09T17:23:03.228Z,93366.22
2024-05-09T17:25:29.983Z,93367.13
2024-05-09T17:27:57.284Z,93366.88
2024-05-09T17:30:29.334Z,93371.03
2024-05-09T17:33:03.050Z,93371.59
2024-05-09T17:35:29.961Z,93374.09
2024-05-09T17:37:56.830Z,93376.97
2024-05-09T17:42:53.397Z,93385.38
2024-05-09T17:45:20.669Z,93379.88
2024-05-09T17:47:47.729Z,93382.63
2024-05-09T17:50:21.017Z,93382.28
2024-05-09T17:52:53.834Z,93377.94
2024-05-09T17:55:21.326Z,93380.84
2024-05-09T17:57:48.509Z,93385.94
2024-05-09T18:00:24.594Z,93382.97
2024-05-09T18:03:00.622Z,93387.03
2024-05-09T18:05:29.085Z,93383.03
2024-05-09T18:07:57.085Z,93380.84
2024-05-09T18:10:29.984Z,93389.78
2024-05-09T18:13:02.568Z,93390.28
2024-05-09T18:15:29.230Z,93390.34
2024-05-09T18:17:56.107Z,93388.28
2024-05-09T18:20:32.749Z,93385.84
2024-05-09T18:23:07.619Z,93384.66
2024-05-09T18:25:34.471Z,93382.97
2024-05-09T18:28:05.462Z,93382.81
2024-05-09T18:30:35.414Z,93384.34
2024-05-09T18:33:05.360Z,93383.13
2024-05-09T18:35:33.416Z,93378.66
2024-05-09T18:38:00.380Z,93376.44
2024-05-09T18:40:33.659Z,93378.53
2024-05-09T18:43:05.175Z,93374.53
2024-05-09T18:45:33.089Z,93375.56
2024-05-09T18:47:59.851Z,93380.84
2024-05-09T18:50:35.272Z,93386.69
2024-05-09T18:53:06.207Z,93385.66
2024-05-09T18:55:33.174Z,93385.19
2024-05-09T18:58:00.062Z,93383.69
2024-05-09T19:00:33.999Z,93394.78
2024-05-09T19:03:05.978Z,93389.78
2024-05-09T19:05:35.307Z,93393.53
2024-05-09T19:08:02.846Z,93389.81
2024-05-09T19:10:34.258Z,93393.56
2024-05-09T19:13:06.507Z,93390.84
2024-05-09T19:15:37.402Z,93406.66
2024-05-09T19:18:04.490Z,93406.41
2024-05-09T19:20:34.552Z,93404.91
2024-05-09T19:23:02.851Z,93411.97
2024-05-09T19:25:29.579Z,93412.97
2024-05-09T19:27:56.266Z,93412.72
2024-05-09T19:30:30.431Z,93418.75
2024-05-09T19:33:05.835Z,93416.75
2024-05-09T19:35:32.637Z,93416.25
2024-05-09T19:37:59.511Z,93415.75
2024-05-09T19:40:31.353Z,93423.81
2024-05-09T19:43:01.442Z,93428.31
2024-05-09T19:45:28.868Z,93430.06
2024-05-09T19:47:56.245Z,93429.84
2024-05-09T19:50:31.609Z,93427.59
2024-05-09T19:53:04.863Z,93428.81
2024-05-09T19:55:31.487Z,93433.59
2024-05-09T19:57:59.055Z,93434.09
2024-05-09T20:00:32.786Z,93434.59
2024-05-09T20:03:03.004Z,93441.38
2024-05-09T20:05:33.102Z,93439.63
2024-05-09T20:08:00.128Z,93438.88
2024-05-09T20:10:31.797Z,93440.63
2024-05-09T20:13:00.770Z,93437.88
2024-05-09T20:15:27.492Z,93440.16
2024-05-09T20:17:54.809Z,93438.63
2024-05-09T20:20:32.191Z,93439.13
2024-05-09T20:23:04.039Z,93437.13
2024-05-09T20:25:30.719Z,93436.66
2024-05-09T20:27:57.542Z,93441.16
2024-05-09T20:30:31.276Z,93439.66
2024-05-09T20:33:00.689Z,93437.41
2024-05-09T20:35:30.584Z,93430.88
2024-05-09T20:37:57.397Z,93436.13
2024-05-09T20:40:29.240Z,93431.13
2024-05-09T20:43:00.564Z,93419.56
2024-05-09T20:45:27.310Z,93420.06
2024-05-09T20:47:54.176Z,93425.84
2024-05-09T20:50:28.851Z,93419.06
2024-05-09T20:53:03.276Z,93436.34
2024-05-09T20:55:30.361Z,93418.56
2024-05-09T20:57:57.409Z,93420.81
2024-05-09T21:00:33.793Z,93424.84
2024-05-09T21:03:06.628Z,93424.31
2024-05-09T21:05:34.656Z,93417.06
2024-05-09T21:08:01.759Z,93420.81
2024-05-09T21:10:32.722Z,93420.03
2024-05-09T21:13:01.159Z,93412.78
2024-05-09T21:15:28.139Z,93419.31
2024-05-09T21:17:55.187Z,93407.03
2024-05-09T21:20:28.742Z,93407.25
2024-05-09T21:22:58.354Z,93413.03
2024-05-09T21:25:25.058Z,93409.53
2024-05-09T21:27:51.968Z,93414.75
2024-05-09T21:30:27.972Z,93410.25
2024-05-09T21:33:04.813Z,93410.47
2024-05-09T21:35:31.796Z,93410.22
2024-05-09T21:37:58.459Z,93400.94
2024-05-09T21:40:31.619Z,93408.44
2024-05-09T21:43:01.792Z,93404.97
2024-05-09T21:45:28.517Z,93408.69
2024-05-09T21:47:55.393Z,93391.44
2024-05-09T21:50:28.741Z,93396.22
2024-05-09T21:53:03.705Z,93397.69
2024-05-09T21:55:30.344Z,93396.44
2024-05-09T21:57:57.144Z,93392.41
2024-05-09T22:00:32.072Z,93402.16
2024-05-09T22:03:03.527Z,93397.94
2024-05-09T22:05:30.907Z,93400.13
2024-05-09T22:07:57.736Z,93391.63
2024-05-09T22:10:30.821Z,93389.84
2024-05-09T22:13:01.373Z,93392.34
2024-05-09T22:15:28.223Z,93395.84
2024-05-09T22:17:57.110Z,93394.31
2024-05-09T22:20:33.147Z,93391.84
2024-05-09T22:23:04.207Z,93392.28
2024-05-09T22:25:32.139Z,93391.78
2024-05-09T22:28:00.111Z,93391.28
2024-05-09T22:30:35.116Z,93387.81
2024-05-09T22:33:06.339Z,93386.28
2024-05-09T22:35:33.198Z,93387.31
2024-05-09T22:38:00.251Z,93391.06
2024-05-09T22:40:38.381Z,93390.81
2024-05-09T22:43:13.612Z,93387.31
2024-05-09T22:45:40.448Z,93382.56
2024-05-09T22:48:08.454Z,93389.53
2024-05-09T22:50:35.418Z,93387.06
2024-05-09T22:53:02.146Z,93379.06
2024-05-09T22:55:29.099Z,93381.53
2024-05-09T22:57:56.063Z,93377.25
2024-05-09T23:00:30.739Z,93364.22
2024-05-09T23:03:00.433Z,93378.16
2024-05-09T23:05:27.581Z,93374.41
2024-05-09T23:07:54.366Z,93374.88
2024-05-09T23:10:28.161Z,93370.63
2024-05-09T23:13:01.508Z,93375.41
2024-05-09T23:15:28.525Z,93368.38
2024-05-09T23:17:55.548Z,93363.56
2024-05-09T23:20:33.098Z,93358.06
2024-05-09T23:23:04.957Z,93369.88
2024-05-09T23:25:31.642Z,93366.34
2024-05-09T23:27:58.396Z,93358.34
2024-05-09T23:30:34.233Z,93361.06
2024-05-09T23:33:06.007Z,93354.03
2024-05-09T23:35:32.805Z,93352.69
2024-05-09T23:37:59.621Z,93353.16
2024-05-09T23:40:37.038Z,93354.22
2024-05-09T23:43:07.220Z,93349.66
2024-05-09T23:45:34.229Z,93343.91
2024-05-09T23:48:01.564Z,93337.47
2024-05-09T23:50:34.771Z,93343.47
2024-05-09T23:53:05.015Z,93333.94
2024-05-09T23:55:32.630Z,93331.91
2024-05-09T23:57:59.581Z,93331.91
